createdAt,value
2017-02-21T00:00:03.212Z,67.41
2017-02-21T00:05:03.634Z,67.41
2017-02-21T00:10:03.406Z,67.41
2017-02-21T00:15:03.208Z,67.41
2017-02-21T00:20:03.151Z,67.41
2017-02-21T00:25:03.757Z,67.41
2017-02-21T00:30:03.453Z,67.41
2017-02-21T00:35:03.489Z,67.51
2017-02-21T00:40:03.493Z,67.51
2017-02-21T00:45:03.410Z,67.61
2017-02-21T00:50:03.320Z,67.7
2017-02-21T00:55:03.145Z,67.89
2017-02-21T01:00:03.250Z,68.08
2017-02-21T01:05:03.486Z,68.27
2017-02-21T01:10:03.373Z,68.46
2017-02-21T01:15:03.416Z,68.75
2017-02-21T01:20:03.312Z,69.13
2017-02-21T01:25:03.354Z,69.32
2017-02-21T01:30:03.181Z,69.51
2017-02-21T01:35:02.884Z,69.67
2017-02-21T01:40:03.005Z,69.85
2017-02-21T01:45:02.784Z,70.14
2017-02-21T01:50:03.490Z,70.14
2017-02-21T01:55:03.552Z,70.33
2017-02-21T02:00:03.211Z,70.43
2017-02-21T02:05:03.213Z,70.62
2017-02-21T02:10:02.921Z,70.81
2017-02-21T02:15:03.130Z,71.09
2017-02-21T02:20:02.892Z,71.57
2017-02-21T02:25:03.761Z,72.05
2017-02-21T02:30:03.460Z,72.33
2017-02-21T02:35:03.226Z,73.28
2017-02-21T02:40:03.514Z,74.52
2017-02-21T02:45:03.448Z,75.19
2017-02-21T02:50:03.288Z,76.2
2017-02-21T02:55:03.347Z,76.76
2017-02-21T03:00:03.379Z,77.15
2017-02-21T03:05:03.272Z,78.57
2017-02-21T03:10:03.206Z,78.96
2017-02-21T03:15:03.071Z,79.33
2017-02-21T03:20:03.150Z,79.43
2017-02-21T03:25:03.014Z,79.62
2017-02-21T03:30:03.771Z,79.43
2017-02-21T03:35:02.772Z,79.72
2017-02-21T03:40:02.914Z,80.29
2017-02-21T03:45:02.852Z,81.38
2017-02-21T03:50:02.883Z,81.86
2017-02-21T03:55:03.689Z,82.91
2017-02-21T04:00:03.561Z,84.05
2017-02-21T04:05:03.744Z,85.38
2017-02-21T04:10:03.680Z,86.05
2017-02-21T04:15:03.695Z,86.43
2017-02-21T04:20:03.464Z,86.14
2017-02-21T04:25:03.454Z,86.24
2017-02-21T04:30:03.114Z,85.38
2017-02-21T04:35:03.259Z,84.24
2017-02-21T04:40:03.279Z,83.29
2017-02-21T04:45:02.957Z,82.81
2017-02-21T04:50:03.229Z,82.62
2017-02-21T04:55:02.907Z,83.19
2017-02-21T05:00:02.951Z,83.19
2017-02-21T05:05:02.783Z,83.48
2017-02-21T05:10:03.684Z,83.67
2017-02-21T05:15:03.434Z,84.14
2017-02-21T05:20:03.443Z,84.14
2017-02-21T05:25:03.323Z,84.52
2017-02-21T05:30:03.434Z,85
2017-02-21T05:35:03.152Z,86.14
2017-02-21T05:40:03.011Z,87.76
2017-02-21T05:45:03.684Z,89.37
2017-02-21T05:50:03.460Z,90.61
2017-02-21T05:55:03.318Z,91.94
2017-02-21T06:00:03.221Z,92.99
2017-02-21T06:05:03.333Z,93.37
2017-02-21T06:10:03.157Z,93.23
2017-02-21T06:15:03.151Z,93.32
2017-02-21T06:20:02.912Z,93.23
2017-02-21T06:25:03.401Z,93.32
2017-02-21T06:30:03.212Z,93.13
2017-02-21T06:35:03.185Z,93.51
2017-02-21T06:40:03.124Z,94.08
2017-02-21T06:45:02.949Z,94.18
2017-02-21T06:50:03.715Z,93.99
2017-02-21T06:55:02.854Z,93.79
2017-02-21T07:00:03.115Z,93.99
2017-02-21T07:05:03.213Z,93.99
2017-02-21T07:10:03.221Z,94.18
2017-02-21T07:15:03.332Z,94.65
2017-02-21T07:20:03.258Z,95.32
2017-02-21T07:25:02.969Z,97.64
2017-02-21T07:30:03.771Z,97.83
2017-02-21T07:35:02.908Z,97.93
2017-02-21T07:40:03.256Z,97.64
2017-02-21T07:45:03.088Z,97.55
2017-02-21T07:50:03.112Z,97.64
2017-02-21T07:55:03.023Z,98.17
2017-02-21T08:00:02.954Z,99.99
2017-02-21T08:05:02.871Z,99.99
2017-02-21T08:10:03.708Z,99.99
2017-02-21T08:15:03.782Z,99.99
2017-02-21T08:20:03.748Z,99.99
2017-02-21T08:25:02.778Z,99.99
2017-02-21T08:30:03.642Z,99.99
2017-02-21T08:35:03.690Z,99.99
2017-02-21T08:40:03.614Z,99.99
2017-02-21T08:45:03.468Z,99.99
2017-02-21T08:50:03.444Z,99.99
2017-02-21T08:55:03.511Z,99.99
2017-02-21T09:00:03.348Z,99.99
2017-02-21T09:05:03.203Z,99.99
2017-02-21T09:10:03.365Z,99.99
2017-02-21T09:15:03.241Z,99.99
2017-02-21T09:20:03.515Z,99.99
2017-02-21T09:25:03.430Z,99.99
2017-02-21T09:30:03.113Z,99.99
2017-02-21T09:35:02.886Z,99.99
2017-02-21T09:40:03.743Z,99.99
2017-02-21T09:45:03.654Z,99.99
2017-02-21T09:50:03.683Z,99.99
2017-02-21T09:55:03.591Z,99.99
2017-02-21T10:00:03.722Z,99.99
2017-02-21T10:05:03.650Z,99.99
2017-02-21T10:10:02.823Z,99.99
2017-02-21T10:15:02.776Z,99.99
2017-02-21T10:20:03.693Z,99.99
2017-02-21T10:25:02.821Z,99.99
2017-02-21T10:30:03.531Z,99.99
2017-02-21T10:35:03.597Z,99.99
2017-02-21T10:40:02.998Z,99.99
2017-02-21T10:45:03.334Z,99.99
2017-02-21T10:50:03.554Z,99.99
2017-02-21T10:55:03.514Z,99.99
2017-02-21T11:00:02.899Z,99.99
2017-02-21T11:05:02.848Z,99.99
2017-02-21T11:10:02.970Z,99.99
2017-02-21T11:15:03.236Z,99.99
2017-02-21T11:20:03.529Z,99.99
2017-02-21T11:25:03.174Z,99.99
2017-02-21T11:30:03.441Z,99.99
2017-02-21T11:35:03.408Z,99.99
2017-02-21T11:40:03.325Z,99.99
2017-02-21T11:45:03.678Z,99.99
2017-02-21T11:50:03.207Z,99.99
2017-02-21T11:55:03.266Z,99.99
2017-02-21T12:00:03.444Z,99.99
2017-02-21T12:05:03.764Z,99.99
2017-02-21T12:10:03.476Z,99.99
2017-02-21T12:15:03.379Z,99.99
2017-02-21T12:20:03.002Z,99.99
2017-02-21T12:25:03.755Z,99.99
2017-02-21T12:30:03.344Z,99.99
2017-02-21T12:35:03.503Z,99.99
2017-02-21T12:40:03.791Z,99.96
2017-02-21T12:45:02.999Z,99.99
2017-02-21T12:50:03.041Z,99.99
2017-02-21T12:55:03.190Z,99.99
2017-02-21T13:00:03.066Z,99.99
2017-02-21T13:05:03.248Z,99.99
2017-02-21T13:10:03.317Z,99.99
2017-02-21T13:15:03.455Z,99.99
2017-02-21T13:20:03.665Z,99.99
2017-02-21T13:25:03.773Z,99.99
2017-02-21T13:30:02.805Z,97.56
2017-02-21T13:35:02.953Z,94.93
2017-02-21T13:40:03.328Z,92.49
2017-02-21T13:45:02.856Z,93.74
2017-02-21T13:50:03.807Z,93.3
2017-02-21T13:55:02.920Z,90.91
2017-02-21T14:00:03.630Z,91.35
2017-02-21T14:05:03.115Z,91.53
2017-02-21T14:10:03.012Z,89.39
2017-02-21T14:15:03.408Z,88.95
2017-02-21T14:20:03.252Z,89.24
2017-02-21T14:25:03.136Z,87.81
2017-02-21T14:30:03.097Z,88.67
2017-02-21T14:35:03.338Z,89.39
2017-02-21T14:40:03.675Z,90.01
2017-02-21T14:45:03.473Z,90.59
2017-02-21T14:50:03.540Z,91.69
2017-02-21T14:55:02.849Z,93.31
2017-02-21T15:00:03.607Z,94.17
2017-02-21T15:05:02.899Z,94.79
2017-02-21T15:10:02.808Z,94.79
2017-02-21T15:15:03.562Z,95.84
2017-02-21T15:20:03.321Z,96.13
2017-02-21T15:25:03.279Z,97.03
2017-02-21T15:30:03.442Z,96.7
2017-02-21T15:35:03.723Z,96.61
2017-02-21T15:40:03.417Z,98.85
2017-02-21T15:45:03.428Z,99.61
2017-02-21T15:50:02.803Z,99.99
2017-02-21T15:55:03.441Z,99.99
2017-02-21T16:00:03.777Z,99.99
2017-02-21T16:05:02.862Z,99.99
2017-02-21T16:10:02.961Z,99.99
2017-02-21T16:15:03.236Z,99.99
2017-02-21T16:20:03.015Z,99.99
2017-02-21T16:25:03.073Z,99.99
2017-02-21T16:30:02.909Z,99.99
2017-02-21T16:35:03.169Z,99.99
2017-02-21T16:40:03.223Z,99.99
2017-02-21T16:45:03.362Z,99.99
2017-02-21T16:50:03.329Z,99.99
2017-02-21T16:55:03.103Z,99.99
2017-02-21T17:00:03.245Z,99.99
2017-02-21T17:05:03.321Z,99.99
2017-02-21T17:10:03.166Z,99.99
2017-02-21T17:15:02.875Z,99.99
2017-02-21T17:20:02.911Z,99.99
2017-02-21T17:25:03.766Z,99.99
2017-02-21T17:30:03.756Z,99.99
2017-02-21T17:35:03.419Z,99.99
2017-02-21T17:40:03.169Z,99.99
2017-02-21T17:45:03.141Z,99.99
2017-02-21T17:50:02.931Z,99.99
2017-02-21T17:55:03.666Z,99.99
2017-02-21T18:00:03.498Z,99.99
2017-02-21T18:05:03.420Z,99.99
2017-02-21T18:10:03.210Z,99.99
2017-02-21T18:15:02.901Z,99.99
2017-02-21T18:20:03.697Z,99.99
2017-02-21T18:25:03.675Z,99.99
2017-02-21T18:30:03.570Z,99.99
2017-02-21T18:35:03.337Z,99.99
2017-02-21T18:40:03.156Z,99.99
2017-02-21T18:45:03.104Z,99.99
2017-02-21T18:50:02.911Z,99.99
2017-02-21T18:55:03.018Z,99.99
2017-02-21T19:00:02.885Z,99.99
2017-02-21T19:05:02.945Z,99.99
2017-02-21T19:10:03.748Z,99.99
2017-02-21T19:15:03.480Z,99.99
2017-02-21T19:20:03.388Z,99.99
2017-02-21T19:25:03.302Z,99.99
2017-02-21T19:30:03.030Z,99.99
2017-02-21T19:35:02.988Z,99.99
2017-02-21T19:40:03.037Z,99.99
2017-02-21T19:45:03.808Z,99.99
2017-02-21T19:50:02.777Z,99.99
2017-02-21T19:55:03.586Z,99.99
2017-02-21T20:00:03.446Z,99.99
2017-02-21T20:05:03.279Z,99.99
2017-02-21T20:10:03.246Z,99.99
2017-02-21T20:15:03.197Z,99.88
2017-02-21T20:20:03.039Z,95.12
2017-02-21T20:25:02.930Z,94.79
2017-02-21T20:30:03.573Z,92.51
2017-02-21T20:35:03.412Z,91.08
2017-02-21T20:40:03.500Z,85.61
2017-02-21T20:45:03.322Z,81.62
2017-02-21T20:50:03.067Z,81.52
2017-02-21T20:55:03.072Z,79.52
2017-02-21T21:00:02.787Z,78.96
2017-02-21T21:05:03.545Z,79.72
2017-02-21T21:10:03.385Z,79.05
2017-02-21T21:15:03.487Z,78.23
2017-02-21T21:20:03.481Z,77.66
2017-02-21T21:25:03.290Z,78.42
2017-02-21T21:30:03.384Z,78.8
2017-02-21T21:35:03.321Z,78.14
2017-02-21T21:40:03.118Z,78.52
2017-02-21T21:45:02.908Z,78.42
2017-02-21T21:50:03.665Z,78.61
2017-02-21T21:55:03.504Z,77
2017-02-21T22:00:03.355Z,75.57
2017-02-21T22:05:03.161Z,74.99
2017-02-21T22:10:03.016Z,73.66
2017-02-21T22:15:02.965Z,73.66
2017-02-21T22:20:03.021Z,73.76
2017-02-21T22:25:03.631Z,73.38
2017-02-21T22:30:03.449Z,73
2017-02-21T22:35:03.557Z,72.81
2017-02-21T22:40:03.511Z,72.81
2017-02-21T22:45:03.402Z,72.14
2017-02-21T22:50:03.417Z,71.86
2017-02-21T22:55:03.076Z,71.38
2017-02-21T23:00:02.939Z,70.81
2017-02-21T23:05:02.969Z,70.52
2017-02-21T23:10:03.713Z,70.14
2017-02-21T23:15:03.530Z,70.24
2017-02-21T23:20:03.415Z,70.47
2017-02-21T23:25:03.287Z,70.94
2017-02-21T23:30:03.075Z,71.42
2017-02-21T23:35:02.917Z,72.08
2017-02-21T23:40:02.821Z,72.27
2017-02-21T23:45:03.604Z,72.37
2017-02-21T23:50:03.282Z,72.75
2017-02-21T23:55:03.248Z,72.94
